createdAt,value
2019-05-16T00:00:53.093Z,100623.39
2019-05-16T00:02:01.234Z,100624.23
2019-05-16T00:03:07.908Z,100621.99
2019-05-16T00:04:11.923Z,100617.52
2019-05-16T00:05:18.651Z,100621.99
2019-05-16T00:06:22.604Z,100604.88
2019-05-16T00:07:28.357Z,100622.84
2019-05-16T00:08:32.747Z,100615.83
2019-05-16T00:09:38.150Z,100619.20
2019-05-16T00:10:42.637Z,100620.88
2019-05-16T00:11:48.765Z,100618.08
2019-05-16T00:12:53.026Z,100613.87
2019-05-16T00:13:57.943Z,100609.39
2019-05-16T00:15:02.080Z,100608.55
2019-05-16T00:16:08.470Z,100602.95
2019-05-16T00:17:12.700Z,100609.67
2019-05-16T00:18:17.926Z,100600.43
2019-05-16T00:19:22.082Z,100599.59
2019-05-16T00:20:28.416Z,100600.70
2019-05-16T00:21:32.830Z,100600.14
2019-05-16T00:22:39.380Z,100598.75
2019-05-16T00:23:43.455Z,100600.43
2019-05-16T00:24:48.870Z,100595.39
2019-05-16T00:25:52.978Z,100585.55
2019-05-16T00:26:58.152Z,100592.30
2019-05-16T00:28:02.368Z,100588.11
2019-05-16T00:29:07.985Z,100588.07
2019-05-16T00:30:12.242Z,100587.79
2019-05-16T00:31:18.332Z,100581.38
2019-05-16T00:32:22.635Z,100583.06
2019-05-16T00:33:28.650Z,100578.86
2019-05-16T00:34:33.952Z,100573.82
2019-05-16T00:35:38.992Z,100575.78
2019-05-16T00:36:43.220Z,100574.66
2019-05-16T00:37:48.535Z,100566.53
2019-05-16T00:38:52.805Z,100566.53
2019-05-16T00:39:58.843Z,100564.58
2019-05-16T00:41:03.230Z,100569.63
2019-05-16T00:42:08.832Z,100568.50
2019-05-16T00:43:14.273Z,100567.94
2019-05-16T00:44:20.194Z,100569.06
2019-05-16T00:45:24.444Z,100566.26
2019-05-16T00:46:29.184Z,100562.89
2019-05-16T00:47:33.393Z,100558.70
2019-05-16T00:48:39.261Z,100558.13
2019-05-16T00:49:43.561Z,100564.58
2019-05-16T00:50:48.445Z,100555.05
2019-05-16T00:51:52.619Z,100554.77
2019-05-16T00:52:59.013Z,100553.09
2019-05-16T00:54:03.381Z,100554.77
2019-05-16T00:55:08.495Z,100553.09
2019-05-16T00:56:12.971Z,100548.61
2019-05-16T00:57:18.827Z,100549.73
2019-05-16T00:58:23.211Z,100547.77
2019-05-16T00:59:28.157Z,100549.45
2019-05-16T01:00:41.210Z,100548.36
2019-05-16T01:01:49.718Z,100543.59
2019-05-16T01:02:51.892Z,100545.24
2019-05-16T01:03:58.617Z,100544.41
2019-05-16T01:05:02.980Z,100543.84
2019-05-16T01:06:16.535Z,100541.05
2019-05-16T01:07:14.387Z,100542.44
2019-05-16T01:08:19.249Z,100542.45
2019-05-16T01:09:23.636Z,100542.16
2019-05-16T01:10:29.590Z,100535.72
2019-05-16T01:11:33.796Z,100543.00
2019-05-16T01:12:39.324Z,100542.44
2019-05-16T01:13:43.554Z,100535.44
2019-05-16T01:14:48.407Z,100538.55
2019-05-16T01:15:52.575Z,100532.39
2019-05-16T01:16:58.160Z,100538.27
2019-05-16T01:18:02.487Z,100533.78
2019-05-16T01:19:08.526Z,100532.39
2019-05-16T01:20:12.895Z,100529.58
2019-05-16T01:21:18.532Z,100525.94
2019-05-16T01:22:23.094Z,100527.63
2019-05-16T01:23:28.342Z,100528.18
2019-05-16T01:24:32.760Z,100530.98
2019-05-16T01:25:38.725Z,100521.73
2019-05-16T01:26:43.189Z,100525.66
2019-05-16T01:27:48.058Z,100522.30
2019-05-16T01:28:52.424Z,100517.81
2019-05-16T01:29:58.377Z,100522.02
2019-05-16T01:31:04.244Z,100522.86
2019-05-16T01:32:08.992Z,100520.06
2019-05-16T01:33:13.224Z,100525.66
2019-05-16T01:34:18.401Z,100523.70
2019-05-16T01:35:22.569Z,100520.06
2019-05-16T01:36:36.659Z,100516.70
2019-05-16T01:37:33.480Z,100521.74
2019-05-16T01:38:39.037Z,100523.39
2019-05-16T01:39:44.725Z,100518.91
2019-05-16T01:40:49.484Z,100522.00
2019-05-16T01:41:53.728Z,100521.72
2019-05-16T01:42:58.466Z,100522.56
2019-05-16T01:44:03.228Z,100520.88
2019-05-16T01:45:08.511Z,100520.32
2019-05-16T01:46:12.683Z,100520.88
2019-05-16T01:47:18.301Z,100512.76
2019-05-16T01:48:23.682Z,100516.13
2019-05-16T01:49:28.372Z,100514.44
2019-05-16T01:50:32.691Z,100516.13
2019-05-16T01:51:38.030Z,100514.72
2019-05-16T01:52:42.310Z,100517.52
2019-05-16T01:53:48.867Z,100518.08
2019-05-16T01:54:52.932Z,100522.00
2019-05-16T01:55:58.102Z,100510.52
2019-05-16T01:57:02.300Z,100513.33
2019-05-16T01:58:08.075Z,100514.16
2019-05-16T01:59:12.519Z,100522.56
2019-05-16T02:00:23.197Z,100515.56
2019-05-16T02:01:23.325Z,100515.84
2019-05-16T02:02:28.922Z,100514.44
2019-05-16T02:03:33.305Z,100517.24
2019-05-16T02:04:38.198Z,100515.84
2019-05-16T02:05:43.350Z,100508.84
2019-05-16T02:06:54.530Z,100514.44
2019-05-16T02:07:54.853Z,100513.32
2019-05-16T02:08:59.649Z,100518.92
2019-05-16T02:10:08.410Z,100516.13
2019-05-16T02:11:13.061Z,100512.48
2019-05-16T02:12:18.480Z,100515.56
2019-05-16T02:13:23.453Z,100514.16
2019-05-16T02:14:28.318Z,100512.45
2019-05-16T02:15:33.091Z,100513.58
2019-05-16T02:16:38.458Z,100518.34
2019-05-16T02:17:43.368Z,100510.77
2019-05-16T02:18:48.864Z,100509.96
2019-05-16T02:19:53.745Z,100509.96
2019-05-16T02:20:58.656Z,100514.44
2019-05-16T02:22:05.129Z,100509.96
2019-05-16T02:23:09.390Z,100511.92
2019-05-16T02:24:14.137Z,100505.48
2019-05-16T02:25:18.767Z,100507.97
2019-05-16T02:26:23.488Z,100506.88
2019-05-16T02:27:28.743Z,100511.92
2019-05-16T02:28:39.770Z,100514.16
2019-05-16T02:29:40.153Z,100504.64
2019-05-16T02:30:44.914Z,100500.44
2019-05-16T02:31:51.302Z,100502.38
2019-05-16T02:32:55.572Z,100503.77
2019-05-16T02:34:01.254Z,100510.22
2019-05-16T02:35:07.178Z,100503.77
2019-05-16T02:36:11.342Z,100497.89
2019-05-16T02:37:24.139Z,100500.13
2019-05-16T02:38:22.422Z,100503.50
2019-05-16T02:39:30.313Z,100500.13
2019-05-16T02:40:33.076Z,100499.58
2019-05-16T02:41:37.782Z,100498.45
2019-05-16T02:42:42.565Z,100495.09
2019-05-16T02:43:50.627Z,100490.89
2019-05-16T02:44:53.286Z,100488.93
2019-05-16T02:46:01.242Z,100496.52
2019-05-16T02:47:04.823Z,100495.37
2019-05-16T02:48:11.030Z,100490.33
2019-05-16T02:49:15.504Z,100493.16
2019-05-16T02:50:22.395Z,100491.76
2019-05-16T02:51:26.365Z,100496.77
2019-05-16T02:52:31.834Z,100488.37
2019-05-16T02:53:36.245Z,100487.28
2019-05-16T02:54:41.554Z,100482.77
2019-05-16T02:55:45.720Z,100484.45
2019-05-16T02:56:50.715Z,100476.05
2019-05-16T02:57:55.089Z,100475.20
2019-05-16T02:59:01.705Z,100474.93
2019-05-16T03:00:12.196Z,100469.61
2019-05-16T03:01:17.452Z,100464.56
2019-05-16T03:02:21.700Z,100464.56
2019-05-16T03:03:26.572Z,100469.63
2019-05-16T03:04:30.910Z,100465.16
2019-05-16T03:05:35.784Z,100461.52
2019-05-16T03:06:41.080Z,100463.19
2019-05-16T03:07:47.510Z,100457.03
2019-05-16T03:08:52.071Z,100455.91
2019-05-16T03:09:57.031Z,100460.67
2019-05-16T03:11:01.332Z,100456.74
2019-05-16T03:12:06.168Z,100460.38
2019-05-16T03:13:11.410Z,100453.38
2019-05-16T03:14:16.290Z,100455.34
2019-05-16T03:15:21.847Z,100457.59
2019-05-16T03:16:27.101Z,100452.55
2019-05-16T03:17:33.845Z,100452.27
2019-05-16T03:18:41.463Z,100450.56
2019-05-16T03:19:45.998Z,100449.19
2019-05-16T03:20:51.140Z,100447.78
2019-05-16T03:21:55.475Z,100444.98
2019-05-16T03:23:02.273Z,100445.83
2019-05-16T03:24:06.279Z,100449.18
2019-05-16T03:25:11.775Z,100442.18
2019-05-16T03:26:16.186Z,100452.27
2019-05-16T03:27:21.663Z,100446.38
2019-05-16T03:28:25.945Z,100445.82
2019-05-16T03:29:31.005Z,100442.18
2019-05-16T03:30:35.759Z,100444.98
2019-05-16T03:31:44.741Z,100449.45
2019-05-16T03:32:46.504Z,100441.89
2019-05-16T03:33:58.793Z,100444.70
2019-05-16T03:34:57.210Z,100444.42
2019-05-16T03:36:04.662Z,100438.54
2019-05-16T03:37:13.550Z,100437.42
2019-05-16T03:38:14.341Z,100439.10
2019-05-16T03:39:21.188Z,100435.17
2019-05-16T03:40:26.450Z,100436.58
2019-05-16T03:41:30.965Z,100437.70
2019-05-16T03:42:35.710Z,100436.02
2019-05-16T03:43:41.259Z,100429.55
2019-05-16T03:44:46.342Z,100432.67
2019-05-16T03:45:52.082Z,100422.55
2019-05-16T03:47:00.976Z,100425.36
2019-05-16T03:48:04.325Z,100428.74
2019-05-16T03:49:11.378Z,100421.74
2019-05-16T03:50:14.971Z,100423.70
2019-05-16T03:51:21.498Z,100425.36
2019-05-16T03:52:25.711Z,100422.28
2019-05-16T03:53:31.739Z,100431.52
2019-05-16T03:54:36.275Z,100426.48
2019-05-16T03:55:41.401Z,100428.72
2019-05-16T03:56:45.574Z,100424.25
2019-05-16T03:57:51.593Z,100426.48
2019-05-16T03:58:56.069Z,100427.88
2019-05-16T04:00:00.983Z,100421.15
2019-05-16T04:01:05.171Z,100420.88
2019-05-16T04:02:10.840Z,100420.88
2019-05-16T04:03:15.252Z,100424.80
2019-05-16T04:04:20.895Z,100420.32
2019-05-16T04:05:26.720Z,100423.69
2019-05-16T04:06:31.446Z,100419.77
2019-05-16T04:07:35.734Z,100415.56
2019-05-16T04:08:41.271Z,100414.45
2019-05-16T04:09:45.797Z,100413.32
2019-05-16T04:10:52.277Z,100416.97
2019-05-16T04:11:56.467Z,100415.02
2019-05-16T04:13:01.273Z,100407.42
2019-05-16T04:14:05.925Z,100414.14
2019-05-16T04:15:11.743Z,100409.94
2019-05-16T04:16:16.048Z,100416.97
2019-05-16T04:17:21.236Z,100407.73
2019-05-16T04:18:25.966Z,100419.77
2019-05-16T04:19:31.546Z,100415.29
2019-05-16T04:20:36.687Z,100413.33
2019-05-16T04:21:42.342Z,100412.77
2019-05-16T04:22:46.821Z,100414.17
2019-05-16T04:23:51.615Z,100420.05
2019-05-16T04:24:55.793Z,100415.28
2019-05-16T04:26:01.068Z,100417.80
2019-05-16T04:27:05.408Z,100417.80
2019-05-16T04:28:11.493Z,100413.87
2019-05-16T04:29:16.448Z,100419.20
2019-05-16T04:30:22.126Z,100413.31
2019-05-16T04:31:26.548Z,100412.76
2019-05-16T04:32:31.728Z,100414.16
2019-05-16T04:33:35.929Z,100413.31
2019-05-16T04:34:41.763Z,100410.23
2019-05-16T04:35:46.276Z,100410.52
2019-05-16T04:36:51.643Z,100414.17
2019-05-16T04:37:56.023Z,100403.81
2019-05-16T04:39:01.800Z,100414.17
2019-05-16T04:40:07.072Z,100401.58
2019-05-16T04:41:12.023Z,100412.78
2019-05-16T04:42:16.201Z,100404.66
2019-05-16T04:43:22.095Z,100411.09
2019-05-16T04:44:26.943Z,100417.81
2019-05-16T04:45:31.898Z,100408.02
2019-05-16T04:46:40.851Z,100414.73
2019-05-16T04:47:43.734Z,100406.05
2019-05-16T04:48:50.514Z,100411.94
2019-05-16T04:49:54.512Z,100403.53
2019-05-16T04:51:01.399Z,100403.81
2019-05-16T04:52:06.206Z,100411.65
2019-05-16T04:53:11.508Z,100415.56
2019-05-16T04:54:16.414Z,100407.73
2019-05-16T04:55:21.149Z,100415.56
2019-05-16T04:56:26.062Z,100408.56
2019-05-16T04:57:31.341Z,100419.48
2019-05-16T04:58:36.174Z,100420.33
2019-05-16T04:59:41.783Z,100416.67
2019-05-16T05:00:47.014Z,100412.47
2019-05-16T05:01:51.438Z,100417.23
2019-05-16T05:02:56.416Z,100417.24
2019-05-16T05:04:10.254Z,100423.12
2019-05-16T05:05:07.038Z,100411.08
2019-05-16T05:06:11.555Z,100414.44
2019-05-16T05:07:16.764Z,100408.27
2019-05-16T05:08:22.339Z,100415.02
2019-05-16T05:09:31.353Z,100412.77
2019-05-16T05:10:34.045Z,100407.73
2019-05-16T05:11:41.241Z,100411.66
2019-05-16T05:12:45.606Z,100409.69
2019-05-16T05:13:50.717Z,100405.20
2019-05-16T05:14:55.171Z,100408.56
2019-05-16T05:16:01.293Z,100401.84
2019-05-16T05:17:05.782Z,100404.36
2019-05-16T05:18:10.572Z,100405.75
2019-05-16T05:19:14.756Z,100410.23
2019-05-16T05:20:20.997Z,100410.51
2019-05-16T05:21:25.444Z,100409.69
2019-05-16T05:22:30.554Z,100408.55
2019-05-16T05:23:34.885Z,100410.51
2019-05-16T05:24:40.582Z,100405.49
2019-05-16T05:25:45.070Z,100405.20
2019-05-16T05:26:50.357Z,100407.16
2019-05-16T05:27:54.678Z,100408.55
2019-05-16T05:28:59.838Z,100400.70
2019-05-16T05:30:05.248Z,100405.19
2019-05-16T05:31:10.809Z,100411.62
2019-05-16T05:32:15.223Z,100407.13
2019-05-16T05:33:21.104Z,100405.73
2019-05-16T05:34:25.607Z,100401.81
2019-05-16T05:35:31.074Z,100398.77
2019-05-16T05:36:35.571Z,100403.24
2019-05-16T05:37:41.006Z,100402.39
2019-05-16T05:38:48.317Z,100403.24
2019-05-16T05:39:51.875Z,100404.91
2019-05-16T05:40:56.177Z,100399.85
2019-05-16T05:42:00.932Z,100395.92
2019-05-16T05:43:05.101Z,100403.50
2019-05-16T05:44:10.633Z,100400.98
2019-05-16T05:45:15.041Z,100403.50
2019-05-16T05:46:20.570Z,100405.17
2019-05-16T05:47:24.949Z,100405.73
2019-05-16T05:48:31.090Z,100397.87
2019-05-16T05:49:35.347Z,100395.36
2019-05-16T05:50:40.284Z,100389.47
2019-05-16T05:51:44.457Z,100392.83
2019-05-16T05:52:51.141Z,100396.18
2019-05-16T05:53:55.275Z,100397.33
2019-05-16T05:55:00.698Z,100391.70
2019-05-16T05:56:05.088Z,100389.48
2019-05-16T05:57:10.008Z,100392.02
2019-05-16T05:58:14.299Z,100395.64
2019-05-16T05:59:20.152Z,100393.97
2019-05-16T06:00:25.349Z,100397.89
2019-05-16T06:01:31.483Z,100394.52
2019-05-16T06:02:35.980Z,100396.47
2019-05-16T06:03:40.748Z,100392.27
2019-05-16T06:04:44.917Z,100401.23
2019-05-16T06:05:50.419Z,100400.95
2019-05-16T06:06:55.210Z,100393.95
2019-05-16T06:08:00.356Z,100397.59
2019-05-16T06:09:05.709Z,100402.63
2019-05-16T06:10:10.902Z,100402.91
2019-05-16T06:11:15.054Z,100391.71
2019-05-16T06:12:21.313Z,100406.84
2019-05-16T06:13:25.812Z,100398.98
2019-05-16T06:14:31.546Z,100404.89
2019-05-16T06:15:35.770Z,100395.64
2019-05-16T06:16:40.538Z,100399.30
2019-05-16T06:17:44.788Z,100400.70
2019-05-16T06:18:50.258Z,100397.61
2019-05-16T06:19:55.732Z,100399.00
2019-05-16T06:21:00.799Z,100394.52
2019-05-16T06:22:04.937Z,100388.09
2019-05-16T06:23:10.562Z,100389.48
2019-05-16T06:24:16.304Z,100390.88
2019-05-16T06:25:22.582Z,100389.21
2019-05-16T06:26:27.380Z,100391.16
2019-05-16T06:27:32.190Z,100394.52
2019-05-16T06:28:36.448Z,100382.45
2019-05-16T06:29:41.203Z,100384.95
2019-05-16T06:30:45.635Z,100393.11
2019-05-16T06:31:50.425Z,100397.61
2019-05-16T06:32:54.665Z,100391.14
2019-05-16T06:34:06.801Z,100383.56
2019-05-16T06:35:09.815Z,100391.14
2019-05-16T06:36:14.739Z,100388.65
2019-05-16T06:37:20.484Z,100383.31
2019-05-16T06:38:25.507Z,100389.20
2019-05-16T06:39:41.193Z,100379.65
2019-05-16T06:40:36.170Z,100376.55
2019-05-16T06:41:41.354Z,100377.94
2019-05-16T06:42:46.084Z,100375.98
2019-05-16T06:43:50.821Z,100379.38
2019-05-16T06:44:55.733Z,100386.66
2019-05-16T06:46:00.772Z,100385.53
2019-05-16T06:47:16.028Z,100379.07
2019-05-16T06:48:11.402Z,100379.62
2019-05-16T06:49:16.121Z,100377.95
2019-05-16T06:50:21.008Z,100383.53
2019-05-16T06:51:25.905Z,100379.63
2019-05-16T06:52:30.292Z,100377.95
2019-05-16T06:53:35.969Z,100374.87
2019-05-16T06:54:40.731Z,100370.08
2019-05-16T06:55:45.479Z,100374.58
2019-05-16T06:56:51.126Z,100374.82
2019-05-16T06:57:57.387Z,100376.22
2019-05-16T06:59:01.775Z,100377.88
2019-05-16T07:00:07.774Z,100371.98
2019-05-16T07:01:12.074Z,100371.14
2019-05-16T07:02:27.749Z,100373.98
2019-05-16T07:03:22.825Z,100368.09
2019-05-16T07:04:27.608Z,100369.45
2019-05-16T07:05:31.797Z,100371.67
2019-05-16T07:06:51.961Z,100369.70
2019-05-16T07:07:42.868Z,100370.52
2019-05-16T07:08:47.609Z,100368.58
2019-05-16T07:09:59.947Z,100364.06
2019-05-16T07:10:59.981Z,100361.52
2019-05-16T07:12:04.463Z,100359.84
2019-05-16T07:13:10.438Z,100362.92
2019-05-16T07:14:14.640Z,100362.90
2019-05-16T07:15:20.611Z,100360.13
2019-05-16T07:16:25.027Z,100362.34
2019-05-16T07:17:30.651Z,100362.30
2019-05-16T07:18:34.929Z,100363.98
2019-05-16T07:19:40.769Z,100357.23
2019-05-16T07:20:46.245Z,100357.22
2019-05-16T07:21:51.011Z,100351.61
2019-05-16T07:22:55.239Z,100354.08
2019-05-16T07:24:00.235Z,100354.91
2019-05-16T07:25:06.790Z,100346.44
2019-05-16T07:26:12.156Z,100349.78
2019-05-16T07:27:16.437Z,100351.73
2019-05-16T07:28:21.338Z,100345.23
2019-05-16T07:29:25.906Z,100342.95
2019-05-16T07:30:30.728Z,100352.78
2019-05-16T07:31:35.065Z,100349.41
2019-05-16T07:32:40.389Z,100345.98
2019-05-16T07:33:44.752Z,100347.12
2019-05-16T07:34:50.745Z,100341.72
2019-05-16T07:35:54.932Z,100338.03
2019-05-16T07:37:00.432Z,100332.89
2019-05-16T07:38:04.734Z,100334.53
2019-05-16T07:39:10.726Z,100333.34
2019-05-16T07:40:23.730Z,100332.74
2019-05-16T07:41:22.777Z,100327.69
2019-05-16T07:42:26.949Z,100329.06
2019-05-16T07:43:31.688Z,100329.56
2019-05-16T07:44:35.929Z,100325.59
2019-05-16T07:45:40.795Z,100322.18
2019-05-16T07:46:44.965Z,100320.44
2019-05-16T07:47:50.891Z,100320.10
2019-05-16T07:48:55.473Z,100316.19
2019-05-16T07:50:00.499Z,100323.48
2019-05-16T07:51:04.956Z,100317.56
2019-05-16T07:52:09.993Z,100316.34
2019-05-16T07:53:14.169Z,100323.11
2019-05-16T07:54:21.264Z,100314.64
2019-05-16T07:55:24.940Z,100319.66
2019-05-16T07:56:31.016Z,100325.51
2019-05-16T07:57:36.452Z,100320.95
2019-05-16T07:58:41.560Z,100313.05
2019-05-16T07:59:45.945Z,100316.95
2019-05-16T08:01:02.224Z,100316.66
2019-05-16T08:01:56.569Z,100317.45
2019-05-16T08:03:01.350Z,100315.17
2019-05-16T08:04:07.628Z,100317.68
2019-05-16T08:05:12.777Z,100316.27
2019-05-16T08:06:16.949Z,100319.92
2019-05-16T08:07:21.697Z,100317.68
2019-05-16T08:08:25.869Z,100311.47
2019-05-16T08:09:30.875Z,100312.84
2019-05-16T08:10:41.810Z,100317.02
2019-05-16T08:11:41.551Z,100320.09
2019-05-16T08:12:45.777Z,100309.94
2019-05-16T08:13:50.874Z,100312.22
2019-05-16T08:14:55.175Z,100307.39
2019-05-16T08:16:01.177Z,100307.09
2019-05-16T08:17:05.683Z,100305.91
2019-05-16T08:18:11.150Z,100312.05
2019-05-16T08:19:15.449Z,100304.45
2019-05-16T08:20:21.395Z,100299.30
2019-05-16T08:21:27.727Z,100304.36
2019-05-16T08:22:32.825Z,100300.88
2019-05-16T08:23:37.180Z,100307.26
2019-05-16T08:24:41.939Z,100304.09
2019-05-16T08:25:46.161Z,100303.51
2019-05-16T08:26:51.576Z,100298.67
2019-05-16T08:27:56.000Z,100299.45
2019-05-16T08:29:02.069Z,100291.85
2019-05-16T08:30:07.227Z,100292.25
2019-05-16T08:31:12.114Z,100301.84
2019-05-16T08:32:16.414Z,100295.08
2019-05-16T08:33:22.120Z,100295.91
2019-05-16T08:34:27.182Z,100291.69
2019-05-16T08:35:31.909Z,100292.83
2019-05-16T08:36:36.080Z,100289.75
2019-05-16T08:37:46.018Z,100287.41
2019-05-16T08:38:46.834Z,100290.39
2019-05-16T08:39:51.673Z,100288.66
2019-05-16T08:41:08.175Z,100286.38
2019-05-16T08:42:07.995Z,100279.81
2019-05-16T08:43:11.556Z,100281.16
2019-05-16T08:44:14.867Z,100283.41
2019-05-16T08:45:21.205Z,100278.63
2019-05-16T08:46:25.632Z,100277.20
2019-05-16T08:47:32.041Z,100279.61
2019-05-16T08:48:36.434Z,100276.72
2019-05-16T08:49:42.220Z,100275.79
2019-05-16T08:50:53.845Z,100270.89
2019-05-16T08:51:54.304Z,100267.15
2019-05-16T08:53:02.615Z,100267.57
2019-05-16T08:54:05.207Z,100271.09
2019-05-16T08:55:12.574Z,100272.97
2019-05-16T08:56:15.887Z,100267.20
2019-05-16T08:57:27.340Z,100267.15
2019-05-16T08:58:26.687Z,100264.27
2019-05-16T08:59:33.818Z,100265.98
2019-05-16T09:00:41.683Z,100256.63
2019-05-16T09:01:51.996Z,100262.16
2019-05-16T09:02:52.536Z,100267.91
2019-05-16T09:04:01.207Z,100261.84
2019-05-16T09:05:05.513Z,100256.12
2019-05-16T09:06:11.748Z,100256.70
2019-05-16T09:07:17.412Z,100253.05
2019-05-16T09:08:22.150Z,100247.92
2019-05-16T09:09:41.075Z,100252.30
2019-05-16T09:10:49.838Z,100243.23
2019-05-16T09:11:44.693Z,100253.62
2019-05-16T09:12:47.727Z,100250.67
2019-05-16T09:13:52.076Z,100247.73
2019-05-16T09:14:59.326Z,100248.28
2019-05-16T09:16:02.867Z,100244.88
2019-05-16T09:17:07.735Z,100239.38
2019-05-16T09:18:11.961Z,100240.27
2019-05-16T09:19:17.100Z,100235.72
2019-05-16T09:20:21.379Z,100233.37
2019-05-16T09:21:27.471Z,100231.04
2019-05-16T09:22:31.893Z,100235.41
2019-05-16T09:23:38.314Z,100229.59
2019-05-16T09:24:42.684Z,100227.73
2019-05-16T09:25:48.753Z,100225.06
2019-05-16T09:26:53.541Z,100225.44
2019-05-16T09:27:58.309Z,100219.63
2019-05-16T09:29:02.629Z,100223.69
2019-05-16T09:30:07.600Z,100221.48
2019-05-16T09:31:11.834Z,100219.17
2019-05-16T09:32:21.198Z,100219.06
2019-05-16T09:33:22.715Z,100219.17
2019-05-16T09:34:28.423Z,100214.89
2019-05-16T09:35:32.800Z,100215.41
2019-05-16T09:36:37.690Z,100219.75
2019-05-16T09:37:41.860Z,100210.69
2019-05-16T09:38:48.525Z,100218.44
2019-05-16T09:39:52.577Z,100218.80
2019-05-16T09:40:58.377Z,100214.69
2019-05-16T09:42:02.608Z,100212.75
2019-05-16T09:43:07.669Z,100208.36
2019-05-16T09:44:11.857Z,100206.74
2019-05-16T09:45:17.580Z,100212.41
2019-05-16T09:46:21.764Z,100209.63
2019-05-16T09:47:28.276Z,100205.23
2019-05-16T09:48:32.685Z,100205.02
2019-05-16T09:49:37.576Z,100206.61
2019-05-16T09:50:42.089Z,100207.94
2019-05-16T09:51:46.885Z,100200.41
2019-05-16T09:52:51.122Z,100201.63
2019-05-16T09:53:56.767Z,100201.80
2019-05-16T09:55:01.267Z,100201.30
2019-05-16T09:56:07.011Z,100193.59
2019-05-16T09:57:12.579Z,100193.08
2019-05-16T09:58:18.650Z,100200.27
2019-05-16T09:59:22.945Z,100200.00
2019-05-16T10:00:27.901Z,100191.70
2019-05-16T10:01:32.110Z,100193.95
2019-05-16T10:02:36.924Z,100192.70
2019-05-16T10:03:41.113Z,100190.36
2019-05-16T10:04:47.353Z,100196.96
2019-05-16T10:05:51.705Z,100179.97
2019-05-16T10:06:57.225Z,100177.55
2019-05-16T10:08:02.646Z,100185.03
2019-05-16T10:09:07.882Z,100182.44
2019-05-16T10:10:12.386Z,100182.38
2019-05-16T10:11:18.442Z,100180.38
2019-05-16T10:12:22.680Z,100177.55
2019-05-16T10:13:27.983Z,100172.37
2019-05-16T10:14:32.368Z,100181.77
2019-05-16T10:15:37.811Z,100180.55
2019-05-16T10:16:42.215Z,100174.48
2019-05-16T10:17:47.727Z,100171.55
2019-05-16T10:18:52.190Z,100168.72
2019-05-16T10:20:00.148Z,100166.28
2019-05-16T10:21:02.817Z,100171.55
2019-05-16T10:22:07.584Z,100165.20
2019-05-16T10:23:14.977Z,100163.10
2019-05-16T10:24:18.352Z,100170.27
2019-05-16T10:25:22.948Z,100158.59
2019-05-16T10:26:28.013Z,100170.09
2019-05-16T10:27:32.215Z,100157.67
2019-05-16T10:28:38.297Z,100160.31
2019-05-16T10:29:42.858Z,100156.48
2019-05-16T10:30:50.079Z,100158.15
2019-05-16T10:31:53.636Z,100152.72
2019-05-16T10:33:00.869Z,100150.77
2019-05-16T10:34:07.572Z,100141.50
2019-05-16T10:35:11.464Z,100141.65
2019-05-16T10:36:17.189Z,100140.38
2019-05-16T10:37:22.213Z,100140.38
2019-05-16T10:38:28.541Z,100140.06
2019-05-16T10:39:33.140Z,100141.73
2019-05-16T10:40:38.668Z,100134.88
2019-05-16T10:41:43.421Z,100136.89
2019-05-16T10:42:47.759Z,100133.46
2019-05-16T10:43:52.779Z,100131.36
2019-05-16T10:44:57.810Z,100137.03
2019-05-16T10:46:02.637Z,100132.67
2019-05-16T10:47:07.695Z,100135.27
2019-05-16T10:48:12.569Z,100136.00
2019-05-16T10:49:33.264Z,100136.17
2019-05-16T10:50:27.398Z,100132.98
2019-05-16T10:51:31.067Z,100131.56
2019-05-16T10:52:36.675Z,100127.31
2019-05-16T10:54:02.318Z,100133.98
2019-05-16T10:54:58.086Z,100128.66
2019-05-16T10:55:53.784Z,100128.08
2019-05-16T10:56:58.705Z,100129.14
2019-05-16T10:58:07.198Z,100127.97
2019-05-16T10:59:46.870Z,100120.36
2019-05-16T11:00:39.919Z,100118.34
2019-05-16T11:01:27.908Z,100117.69
2019-05-16T11:02:29.733Z,100111.77
2019-05-16T11:03:34.408Z,100110.91
2019-05-16T11:04:53.893Z,100116.62
2019-05-16T11:06:01.130Z,100112.13
2019-05-16T11:06:51.445Z,100116.45
2019-05-16T11:07:57.356Z,100112.02
2019-05-16T11:09:02.006Z,100107.42
2019-05-16T11:10:07.669Z,100105.86
2019-05-16T11:11:11.908Z,100109.84
2019-05-16T11:12:20.176Z,100111.78
2019-05-16T11:13:22.708Z,100114.20
2019-05-16T11:14:28.235Z,100107.83
2019-05-16T11:15:34.106Z,100108.31
2019-05-16T11:16:38.876Z,100103.61
2019-05-16T11:17:43.322Z,100109.77
2019-05-16T11:18:49.792Z,100103.02
2019-05-16T11:19:54.018Z,100099.83
2019-05-16T11:20:58.747Z,100095.88
2019-05-16T11:22:02.920Z,100103.00
2019-05-16T11:23:08.163Z,100102.09
2019-05-16T11:24:13.560Z,100094.30
2019-05-16T11:25:25.105Z,100101.91
2019-05-16T11:26:29.902Z,100095.56
2019-05-16T11:27:32.033Z,100104.31
2019-05-16T11:28:36.949Z,100094.63
2019-05-16T11:29:41.981Z,100098.64
2019-05-16T11:30:47.596Z,100099.12
2019-05-16T11:31:52.645Z,100093.68
2019-05-16T11:32:56.980Z,100098.91
2019-05-16T11:34:01.709Z,100093.46
2019-05-16T11:35:08.608Z,100104.69
2019-05-16T11:36:13.457Z,100097.48
2019-05-16T11:37:17.858Z,100093.73
2019-05-16T11:38:22.620Z,100094.45
2019-05-16T11:39:26.790Z,100086.06
2019-05-16T11:40:31.310Z,100087.00
2019-05-16T11:41:35.576Z,100091.61
2019-05-16T11:42:40.318Z,100083.09
2019-05-16T11:43:44.560Z,100082.50
2019-05-16T11:44:49.284Z,100082.98
2019-05-16T11:45:53.622Z,100083.09
2019-05-16T11:46:58.454Z,100084.05
2019-05-16T11:48:02.695Z,100078.96
2019-05-16T11:49:07.430Z,100074.12
2019-05-16T11:50:11.611Z,100071.52
2019-05-16T11:51:17.530Z,100067.14
2019-05-16T11:52:21.816Z,100067.89
2019-05-16T11:53:28.309Z,100068.56
2019-05-16T11:54:32.741Z,100068.67
2019-05-16T11:55:50.333Z,100065.95
2019-05-16T11:56:43.403Z,100069.60
2019-05-16T11:57:48.193Z,100063.05
2019-05-16T11:58:52.437Z,100063.50
2019-05-16T11:59:57.252Z,100057.78
2019-05-16T12:01:01.444Z,100057.05
2019-05-16T12:02:06.306Z,100054.56
2019-05-16T12:03:10.616Z,100050.77
2019-05-16T12:04:17.352Z,100051.48
2019-05-16T12:05:21.304Z,100049.85
2019-05-16T12:06:26.795Z,100057.23
2019-05-16T12:07:33.566Z,100060.45
2019-05-16T12:08:37.757Z,100055.88
2019-05-16T12:09:46.995Z,100054.36
2019-05-16T12:10:48.469Z,100053.81
2019-05-16T12:12:02.646Z,100047.78
2019-05-16T12:12:59.146Z,100055.95
2019-05-16T12:14:04.319Z,100049.68
2019-05-16T12:15:09.462Z,100058.12
2019-05-16T12:16:16.373Z,100056.50
2019-05-16T12:17:20.192Z,100055.20
2019-05-16T12:18:26.367Z,100051.06
2019-05-16T12:19:33.760Z,100054.14
2019-05-16T12:20:36.825Z,100059.34
2019-05-16T12:21:41.576Z,100047.90
2019-05-16T12:22:45.934Z,100046.72
2019-05-16T12:23:50.644Z,100039.50